sensor_id;sensor_type;location;lat;lon;timestamp;P1;durP1;ratioP1;P2;durP2;ratioP2
20008;SDS011;10165;42.662;23.260;2023-01-08T00:02:03;21.50;;;9.77;;
20008;SDS011;10165;42.662;23.260;2023-01-08T00:04:29;15.60;;;8.43;;
20008;SDS011;10165;42.662;23.260;2023-01-08T00:06:56;25.60;;;11.47;;
20008;SDS011;10165;42.662;23.260;2023-01-08T00:09:22;20.20;;;11.47;;
20008;SDS011;10165;42.662;23.260;2023-01-08T00:11:49;13.60;;;9.57;;
20008;SDS011;10165;42.662;23.260;2023-01-08T00:14:16;21.43;;;11.50;;
20008;SDS011;10165;42.662;23.260;2023-01-08T00:16:43;22.47;;;10.17;;
20008;SDS011;10165;42.662;23.260;2023-01-08T00:19:10;14.80;;;9.50;;
20008;SDS011;10165;42.662;23.260;2023-01-08T00:21:38;24.17;;;10.83;;
20008;SDS011;10165;42.662;23.260;2023-01-08T00:24:04;20.00;;;10.20;;
20008;SDS011;10165;42.662;23.260;2023-01-08T00:26:31;20.03;;;11.30;;
20008;SDS011;10165;42.662;23.260;2023-01-08T00:28:58;19.17;;;10.57;;
20008;SDS011;10165;42.662;23.260;2023-01-08T00:31:25;20.90;;;10.80;;
20008;SDS011;10165;42.662;23.260;2023-01-08T00:33:51;25.07;;;12.07;;
20008;SDS011;10165;42.662;23.260;2023-01-08T00:36:18;28.40;;;12.07;;
20008;SDS011;10165;42.662;23.260;2023-01-08T00:38:45;26.07;;;13.30;;
20008;SDS011;10165;42.662;23.260;2023-01-08T00:41:12;22.63;;;12.23;;
20008;SDS011;10165;42.662;23.260;2023-01-08T00:43:40;32.73;;;13.47;;
20008;SDS011;10165;42.662;23.260;2023-01-08T00:46:07;24.17;;;12.37;;
20008;SDS011;10165;42.662;23.260;2023-01-08T00:48:34;19.97;;;12.07;;
20008;SDS011;10165;42.662;23.260;2023-01-08T00:51:05;23.07;;;11.17;;
20008;SDS011;10165;42.662;23.260;2023-01-08T00:53:33;24.57;;;12.27;;
20008;SDS011;10165;42.662;23.260;2023-01-08T00:56:08;27.97;;;12.67;;
20008;SDS011;10165;42.662;23.260;2023-01-08T00:58:36;26.63;;;12.10;;
20008;SDS011;10165;42.662;23.260;2023-01-08T01:01:07;18.73;;;10.20;;
20008;SDS011;10165;42.662;23.260;2023-01-08T01:03:36;26.03;;;11.33;;
20008;SDS011;10165;42.662;23.260;2023-01-08T01:06:03;18.37;;;9.93;;
20008;SDS011;10165;42.662;23.260;2023-01-08T01:08:31;15.43;;;7.80;;
20008;SDS011;10165;42.662;23.260;2023-01-08T01:10:58;14.27;;;8.03;;
20008;SDS011;10165;42.662;23.260;2023-01-08T01:13:25;11.57;;;6.50;;
20008;SDS011;10165;42.662;23.260;2023-01-08T01:15:55;12.37;;;6.37;;
20008;SDS011;10165;42.662;23.260;2023-01-08T01:18:23;7.17;;;4.83;;
20008;SDS011;10165;42.662;23.260;2023-01-08T01:20:50;9.37;;;5.23;;
20008;SDS011;10165;42.662;23.260;2023-01-08T01:23:16;8.73;;;6.27;;
20008;SDS011;10165;42.662;23.260;2023-01-08T01:25:43;5.47;;;4.53;;
20008;SDS011;10165;42.662;23.260;2023-01-08T01:28:11;8.97;;;4.00;;
20008;SDS011;10165;42.662;23.260;2023-01-08T01:30:37;9.50;;;5.27;;
20008;SDS011;10165;42.662;23.260;2023-01-08T01:33:04;10.37;;;4.43;;
20008;SDS011;10165;42.662;23.260;2023-01-08T01:35:31;7.67;;;3.97;;
20008;SDS011;10165;42.662;23.260;2023-01-08T01:37:57;7.53;;;3.93;;
20008;SDS011;10165;42.662;23.260;2023-01-08T01:40:27;7.63;;;4.20;;
20008;SDS011;10165;42.662;23.260;2023-01-08T01:42:54;7.97;;;3.53;;
20008;SDS011;10165;42.662;23.260;2023-01-08T01:45:22;8.23;;;4.70;;
20008;SDS011;10165;42.662;23.260;2023-01-08T01:47:56;9.00;;;4.50;;
20008;SDS011;10165;42.662;23.260;2023-01-08T01:53:06;11.37;;;4.70;;
20008;SDS011;10165;42.662;23.260;2023-01-08T01:55:41;8.30;;;3.87;;
20008;SDS011;10165;42.662;23.260;2023-01-08T01:58:27;8.57;;;5.17;;
20008;SDS011;10165;42.662;23.260;2023-01-08T02:00:57;7.13;;;4.40;;
20008;SDS011;10165;42.662;23.260;2023-01-08T02:03:28;10.57;;;5.30;;
20008;SDS011;10165;42.662;23.260;2023-01-08T02:06:03;6.87;;;4.93;;
20008;SDS011;10165;42.662;23.260;2023-01-08T02:11:16;10.47;;;5.30;;
20008;SDS011;10165;42.662;23.260;2023-01-08T02:14:15;10.40;;;4.97;;
20008;SDS011;10165;42.662;23.260;2023-01-08T02:17:05;4.50;;;4.00;;
20008;SDS011;10165;42.662;23.260;2023-01-08T02:25:01;5.67;;;3.73;;
20008;SDS011;10165;42.662;23.260;2023-01-08T02:27:35;7.37;;;3.97;;
20008;SDS011;10165;42.662;23.260;2023-01-08T02:30:06;7.53;;;3.47;;
20008;SDS011;10165;42.662;23.260;2023-01-08T02:32:35;6.53;;;3.80;;
20008;SDS011;10165;42.662;23.260;2023-01-08T02:35:04;5.93;;;3.57;;
20008;SDS011;10165;42.662;23.260;2023-01-08T02:37:32;7.20;;;4.57;;
20008;SDS011;10165;42.662;23.260;2023-01-08T02:42:34;7.70;;;4.87;;
20008;SDS011;10165;42.662;23.260;2023-01-08T02:45:29;12.07;;;6.77;;
20008;SDS011;10165;42.662;23.260;2023-01-08T02:50:43;5.70;;;4.17;;
20008;SDS011;10165;42.662;23.260;2023-01-08T02:53:21;11.03;;;4.07;;
20008;SDS011;10165;42.662;23.260;2023-01-08T02:55:56;7.97;;;4.13;;
20008;SDS011;10165;42.662;23.260;2023-01-08T02:58:28;10.23;;;3.97;;
20008;SDS011;10165;42.662;23.260;2023-01-08T03:00:57;6.03;;;4.30;;
20008;SDS011;10165;42.662;23.260;2023-01-08T03:03:27;9.03;;;4.93;;
20008;SDS011;10165;42.662;23.260;2023-01-08T03:06:02;8.20;;;4.37;;
20008;SDS011;10165;42.662;23.260;2023-01-08T03:08:32;9.73;;;4.77;;
20008;SDS011;10165;42.662;23.260;2023-01-08T03:11:04;13.03;;;4.93;;
20008;SDS011;10165;42.662;23.260;2023-01-08T03:16:28;16.00;;;6.40;;
20008;SDS011;10165;42.662;23.260;2023-01-08T03:19:04;5.13;;;4.23;;
20008;SDS011;10165;42.662;23.260;2023-01-08T03:21:42;6.57;;;4.50;;
20008;SDS011;10165;42.662;23.260;2023-01-08T03:24:15;13.37;;;4.80;;
20008;SDS011;10165;42.662;23.260;2023-01-08T03:26:49;10.63;;;4.93;;
20008;SDS011;10165;42.662;23.260;2023-01-08T03:29:20;7.97;;;4.47;;
20008;SDS011;10165;42.662;23.260;2023-01-08T03:31:50;7.63;;;4.00;;
20008;SDS011;10165;42.662;23.260;2023-01-08T03:34:20;7.70;;;5.03;;
20008;SDS011;10165;42.662;23.260;2023-01-08T03:36:50;5.00;;;3.40;;
20008;SDS011;10165;42.662;23.260;2023-01-08T03:39:25;8.23;;;4.37;;
20008;SDS011;10165;42.662;23.260;2023-01-08T03:41:57;8.53;;;4.40;;
20008;SDS011;10165;42.662;23.260;2023-01-08T03:44:28;4.47;;;3.47;;
20008;SDS011;10165;42.662;23.260;2023-01-08T03:46:54;5.80;;;3.53;;
20008;SDS011;10165;42.662;23.260;2023-01-08T03:49:23;5.67;;;3.77;;
20008;SDS011;10165;42.662;23.260;2023-01-08T03:51:53;5.43;;;3.87;;
20008;SDS011;10165;42.662;23.260;2023-01-08T03:54:22;7.90;;;4.47;;
20008;SDS011;10165;42.662;23.260;2023-01-08T03:56:54;5.40;;;4.20;;
20008;SDS011;10165;42.662;23.260;2023-01-08T03:59:20;7.77;;;4.00;;
20008;SDS011;10165;42.662;23.260;2023-01-08T04:01:47;8.73;;;5.13;;
20008;SDS011;10165;42.662;23.260;2023-01-08T04:04:14;9.73;;;3.93;;
20008;SDS011;10165;42.662;23.260;2023-01-08T04:06:41;6.40;;;3.60;;
20008;SDS011;10165;42.662;23.260;2023-01-08T04:09:08;7.10;;;4.60;;
20008;SDS011;10165;42.662;23.260;2023-01-08T04:11:35;6.17;;;4.63;;
20008;SDS011;10165;42.662;23.260;2023-01-08T04:14:01;6.93;;;4.30;;
20008;SDS011;10165;42.662;23.260;2023-01-08T04:16:29;5.37;;;3.53;;
20008;SDS011;10165;42.662;23.260;2023-01-08T04:18:56;10.13;;;4.20;;
20008;SDS011;10165;42.662;23.260;2023-01-08T04:21:23;6.03;;;4.20;;
20008;SDS011;10165;42.662;23.260;2023-01-08T04:23:50;4.37;;;3.13;;
20008;SDS011;10165;42.662;23.260;2023-01-08T04:26:16;10.33;;;3.37;;
20008;SDS011;10165;42.662;23.260;2023-01-08T04:28:43;6.07;;;4.27;;
20008;SDS011;10165;42.662;23.260;2023-01-08T04:31:10;6.60;;;3.30;;
20008;SDS011;10165;42.662;23.260;2023-01-08T04:33:37;4.47;;;3.33;;
20008;SDS011;10165;42.662;23.260;2023-01-08T04:36:13;19.00;;;3.37;;
20008;SDS011;10165;42.662;23.260;2023-01-08T04:38:40;6.40;;;3.67;;
20008;SDS011;10165;42.662;23.260;2023-01-08T04:41:07;5.60;;;3.43;;
20008;SDS011;10165;42.662;23.260;2023-01-08T04:43:33;5.33;;;3.57;;
20008;SDS011;10165;42.662;23.260;2023-01-08T04:46:01;5.40;;;3.03;;
20008;SDS011;10165;42.662;23.260;2023-01-08T04:48:29;7.80;;;3.67;;
20008;SDS011;10165;42.662;23.260;2023-01-08T04:50:57;6.37;;;4.27;;
20008;SDS011;10165;42.662;23.260;2023-01-08T04:53:25;6.30;;;4.00;;
20008;SDS011;10165;42.662;23.260;2023-01-08T04:55:53;9.53;;;4.63;;
20008;SDS011;10165;42.662;23.260;2023-01-08T04:58:20;9.77;;;4.63;;
20008;SDS011;10165;42.662;23.260;2023-01-08T05:00:47;8.70;;;4.80;;
20008;SDS011;10165;42.662;23.260;2023-01-08T05:03:19;7.57;;;4.47;;
20008;SDS011;10165;42.662;23.260;2023-01-08T05:05:46;6.87;;;5.07;;
20008;SDS011;10165;42.662;23.260;2023-01-08T05:08:15;8.33;;;4.37;;
20008;SDS011;10165;42.662;23.260;2023-01-08T05:10:44;6.80;;;4.40;;
20008;SDS011;10165;42.662;23.260;2023-01-08T05:13:11;7.40;;;4.50;;
20008;SDS011;10165;42.662;23.260;2023-01-08T05:15:37;7.97;;;4.30;;
20008;SDS011;10165;42.662;23.260;2023-01-08T05:18:04;6.97;;;4.50;;
20008;SDS011;10165;42.662;23.260;2023-01-08T05:20:31;13.17;;;4.40;;
20008;SDS011;10165;42.662;23.260;2023-01-08T05:23:01;9.57;;;5.13;;
20008;SDS011;10165;42.662;23.260;2023-01-08T05:25:30;8.83;;;4.57;;
20008;SDS011;10165;42.662;23.260;2023-01-08T05:27:57;6.67;;;4.23;;
20008;SDS011;10165;42.662;23.260;2023-01-08T05:30:24;9.87;;;4.60;;
20008;SDS011;10165;42.662;23.260;2023-01-08T05:32:50;7.37;;;4.73;;
20008;SDS011;10165;42.662;23.260;2023-01-08T05:35:18;9.93;;;5.60;;
20008;SDS011;10165;42.662;23.260;2023-01-08T05:37:45;7.37;;;5.23;;
20008;SDS011;10165;42.662;23.260;2023-01-08T05:40:14;7.83;;;4.80;;
20008;SDS011;10165;42.662;23.260;2023-01-08T05:42:40;10.23;;;6.63;;
20008;SDS011;10165;42.662;23.260;2023-01-08T05:45:08;10.97;;;6.17;;
20008;SDS011;10165;42.662;23.260;2023-01-08T05:47:34;9.17;;;6.23;;
20008;SDS011;10165;42.662;23.260;2023-01-08T05:50:01;10.07;;;5.77;;
20008;SDS011;10165;42.662;23.260;2023-01-08T05:52:28;9.47;;;6.60;;
20008;SDS011;10165;42.662;23.260;2023-01-08T05:54:55;11.27;;;6.40;;
20008;SDS011;10165;42.662;23.260;2023-01-08T05:57:21;11.97;;;6.47;;
20008;SDS011;10165;42.662;23.260;2023-01-08T05:59:48;8.47;;;6.47;;
20008;SDS011;10165;42.662;23.260;2023-01-08T06:02:14;8.43;;;6.20;;
20008;SDS011;10165;42.662;23.260;2023-01-08T06:04:41;10.03;;;7.30;;
20008;SDS011;10165;42.662;23.260;2023-01-08T06:07:08;13.27;;;6.87;;
20008;SDS011;10165;42.662;23.260;2023-01-08T06:09:35;14.27;;;6.63;;
20008;SDS011;10165;42.662;23.260;2023-01-08T06:12:02;11.63;;;7.27;;
20008;SDS011;10165;42.662;23.260;2023-01-08T06:14:29;12.50;;;6.10;;
20008;SDS011;10165;42.662;23.260;2023-01-08T06:16:55;20.47;;;6.40;;
20008;SDS011;10165;42.662;23.260;2023-01-08T06:19:22;6.97;;;5.13;;
20008;SDS011;10165;42.662;23.260;2023-01-08T06:21:49;13.20;;;5.30;;
20008;SDS011;10165;42.662;23.260;2023-01-08T06:24:16;12.07;;;6.03;;
20008;SDS011;10165;42.662;23.260;2023-01-08T06:26:42;6.77;;;5.03;;
20008;SDS011;10165;42.662;23.260;2023-01-08T06:29:09;9.40;;;5.73;;
20008;SDS011;10165;42.662;23.260;2023-01-08T06:31:35;11.20;;;4.80;;
20008;SDS011;10165;42.662;23.260;2023-01-08T06:34:02;8.87;;;5.33;;
20008;SDS011;10165;42.662;23.260;2023-01-08T06:36:29;11.30;;;5.10;;
20008;SDS011;10165;42.662;23.260;2023-01-08T06:38:55;11.43;;;6.70;;
20008;SDS011;10165;42.662;23.260;2023-01-08T06:41:22;11.40;;;6.37;;
20008;SDS011;10165;42.662;23.260;2023-01-08T06:43:49;6.50;;;5.27;;
20008;SDS011;10165;42.662;23.260;2023-01-08T06:46:16;9.03;;;5.23;;
20008;SDS011;10165;42.662;23.260;2023-01-08T06:48:43;9.97;;;6.47;;
20008;SDS011;10165;42.662;23.260;2023-01-08T06:51:10;10.00;;;6.30;;
20008;SDS011;10165;42.662;23.260;2023-01-08T06:53:36;6.57;;;5.47;;
20008;SDS011;10165;42.662;23.260;2023-01-08T06:56:03;13.47;;;7.43;;
20008;SDS011;10165;42.662;23.260;2023-01-08T06:58:32;18.87;;;8.63;;
20008;SDS011;10165;42.662;23.260;2023-01-08T07:01:24;18.93;;;8.93;;
20008;SDS011;10165;42.662;23.260;2023-01-08T07:03:53;12.90;;;6.97;;
20008;SDS011;10165;42.662;23.260;2023-01-08T07:06:27;19.33;;;8.90;;
20008;SDS011;10165;42.662;23.260;2023-01-08T07:08:57;12.00;;;7.53;;
20008;SDS011;10165;42.662;23.260;2023-01-08T07:11:28;16.33;;;7.50;;
20008;SDS011;10165;42.662;23.260;2023-01-08T07:13:55;16.17;;;9.47;;
20008;SDS011;10165;42.662;23.260;2023-01-08T07:16:21;12.87;;;8.73;;
20008;SDS011;10165;42.662;23.260;2023-01-08T07:18:48;21.97;;;10.40;;
20008;SDS011;10165;42.662;23.260;2023-01-08T07:21:15;23.37;;;13.47;;
20008;SDS011;10165;42.662;23.260;2023-01-08T07:23:42;27.97;;;13.67;;
20008;SDS011;10165;42.662;23.260;2023-01-08T07:26:08;23.13;;;13.73;;
20008;SDS011;10165;42.662;23.260;2023-01-08T07:28:35;27.50;;;13.73;;
20008;SDS011;10165;42.662;23.260;2023-01-08T07:31:03;23.47;;;14.13;;
20008;SDS011;10165;42.662;23.260;2023-01-08T07:33:31;29.67;;;16.63;;
20008;SDS011;10165;42.662;23.260;2023-01-08T07:35:57;23.40;;;14.43;;
20008;SDS011;10165;42.662;23.260;2023-01-08T07:38:24;28.03;;;12.93;;
20008;SDS011;10165;42.662;23.260;2023-01-08T07:40:51;26.80;;;12.73;;
20008;SDS011;10165;42.662;23.260;2023-01-08T07:43:18;25.53;;;11.93;;
20008;SDS011;10165;42.662;23.260;2023-01-08T07:45:44;26.57;;;13.60;;
20008;SDS011;10165;42.662;23.260;2023-01-08T07:48:11;25.40;;;14.07;;
20008;SDS011;10165;42.662;23.260;2023-01-08T07:50:42;20.30;;;12.23;;
20008;SDS011;10165;42.662;23.260;2023-01-08T07:53:10;26.30;;;12.33;;
20008;SDS011;10165;42.662;23.260;2023-01-08T07:55:39;23.77;;;12.27;;
20008;SDS011;10165;42.662;23.260;2023-01-08T07:58:09;27.93;;;12.93;;
20008;SDS011;10165;42.662;23.260;2023-01-08T08:00:39;22.37;;;12.23;;
20008;SDS011;10165;42.662;23.260;2023-01-08T08:03:06;21.17;;;12.03;;
20008;SDS011;10165;42.662;23.260;2023-01-08T08:05:36;21.63;;;11.70;;
20008;SDS011;10165;42.662;23.260;2023-01-08T08:08:07;21.10;;;9.80;;
20008;SDS011;10165;42.662;23.260;2023-01-08T08:10:36;46.37;;;21.70;;
20008;SDS011;10165;42.662;23.260;2023-01-08T08:13:04;23.93;;;11.33;;
20008;SDS011;10165;42.662;23.260;2023-01-08T08:15:31;29.10;;;12.90;;
20008;SDS011;10165;42.662;23.260;2023-01-08T08:17:58;29.07;;;14.43;;
20008;SDS011;10165;42.662;23.260;2023-01-08T08:20:25;27.83;;;15.63;;
20008;SDS011;10165;42.662;23.260;2023-01-08T08:22:58;25.60;;;11.83;;
20008;SDS011;10165;42.662;23.260;2023-01-08T08:25:32;23.93;;;12.63;;
20008;SDS011;10165;42.662;23.260;2023-01-08T08:27:59;26.70;;;16.97;;
20008;SDS011;10165;42.662;23.260;2023-01-08T08:30:27;26.37;;;13.97;;
20008;SDS011;10165;42.662;23.260;2023-01-08T08:32:56;16.00;;;10.07;;
20008;SDS011;10165;42.662;23.260;2023-01-08T08:35:24;23.87;;;11.43;;
20008;SDS011;10165;42.662;23.260;2023-01-08T08:37:52;19.53;;;10.80;;
20008;SDS011;10165;42.662;23.260;2023-01-08T08:40:19;22.73;;;11.80;;
20008;SDS011;10165;42.662;23.260;2023-01-08T08:42:47;16.30;;;10.23;;
20008;SDS011;10165;42.662;23.260;2023-01-08T08:45:14;19.37;;;11.57;;
20008;SDS011;10165;42.662;23.260;2023-01-08T08:47:43;15.87;;;10.37;;
20008;SDS011;10165;42.662;23.260;2023-01-08T08:50:10;23.73;;;12.07;;
20008;SDS011;10165;42.662;23.260;2023-01-08T08:52:37;21.47;;;11.70;;
20008;SDS011;10165;42.662;23.260;2023-01-08T08:55:04;22.53;;;12.20;;
20008;SDS011;10165;42.662;23.260;2023-01-08T08:57:32;21.67;;;12.33;;
20008;SDS011;10165;42.662;23.260;2023-01-08T08:59:58;21.50;;;10.97;;
20008;SDS011;10165;42.662;23.260;2023-01-08T09:02:26;23.03;;;12.07;;
20008;SDS011;10165;42.662;23.260;2023-01-08T09:04:58;19.83;;;12.30;;
20008;SDS011;10165;42.662;23.260;2023-01-08T09:07:25;20.23;;;12.20;;
20008;SDS011;10165;42.662;23.260;2023-01-08T09:09:52;19.93;;;10.47;;
20008;SDS011;10165;42.662;23.260;2023-01-08T09:12:19;23.30;;;12.23;;
20008;SDS011;10165;42.662;23.260;2023-01-08T09:14:45;16.40;;;10.10;;
20008;SDS011;10165;42.662;23.260;2023-01-08T09:17:12;19.50;;;11.37;;
20008;SDS011;10165;42.662;23.260;2023-01-08T09:19:39;20.33;;;12.50;;
20008;SDS011;10165;42.662;23.260;2023-01-08T09:22:05;14.93;;;10.33;;
20008;SDS011;10165;42.662;23.260;2023-01-08T09:24:33;20.20;;;10.63;;
20008;SDS011;10165;42.662;23.260;2023-01-08T09:26:59;17.70;;;11.20;;
20008;SDS011;10165;42.662;23.260;2023-01-08T09:29:26;19.90;;;12.10;;
20008;SDS011;10165;42.662;23.260;2023-01-08T09:31:54;16.53;;;11.33;;
20008;SDS011;10165;42.662;23.260;2023-01-08T09:34:22;22.63;;;12.43;;
20008;SDS011;10165;42.662;23.260;2023-01-08T09:36:49;26.80;;;12.80;;
20008;SDS011;10165;42.662;23.260;2023-01-08T09:39:16;17.87;;;10.27;;
20008;SDS011;10165;42.662;23.260;2023-01-08T09:41:43;16.67;;;9.80;;
20008;SDS011;10165;42.662;23.260;2023-01-08T09:44:17;15.03;;;10.03;;
20008;SDS011;10165;42.662;23.260;2023-01-08T09:46:47;16.23;;;10.43;;
20008;SDS011;10165;42.662;23.260;2023-01-08T09:49:22;21.07;;;10.77;;
20008;SDS011;10165;42.662;23.260;2023-01-08T09:51:54;19.50;;;11.47;;
20008;SDS011;10165;42.662;23.260;2023-01-08T09:54:21;16.57;;;10.07;;
20008;SDS011;10165;42.662;23.260;2023-01-08T09:56:51;23.63;;;12.23;;
20008;SDS011;10165;42.662;23.260;2023-01-08T09:59:19;21.23;;;11.37;;
20008;SDS011;10165;42.662;23.260;2023-01-08T10:01:46;21.27;;;10.20;;
20008;SDS011;10165;42.662;23.260;2023-01-08T10:04:20;37.33;;;17.53;;
20008;SDS011;10165;42.662;23.260;2023-01-08T10:09:26;19.10;;;11.80;;
20008;SDS011;10165;42.662;23.260;2023-01-08T10:11:57;17.50;;;11.70;;
20008;SDS011;10165;42.662;23.260;2023-01-08T10:14:28;13.83;;;9.93;;
20008;SDS011;10165;42.662;23.260;2023-01-08T10:17:02;18.93;;;10.80;;
20008;SDS011;10165;42.662;23.260;2023-01-08T10:19:37;19.23;;;11.17;;
20008;SDS011;10165;42.662;23.260;2023-01-08T10:22:08;22.90;;;10.97;;
20008;SDS011;10165;42.662;23.260;2023-01-08T10:24:39;28.30;;;16.23;;
20008;SDS011;10165;42.662;23.260;2023-01-08T10:27:07;20.37;;;13.80;;
20008;SDS011;10165;42.662;23.260;2023-01-08T10:29:35;26.90;;;15.50;;
20008;SDS011;10165;42.662;23.260;2023-01-08T10:32:06;16.67;;;9.77;;
20008;SDS011;10165;42.662;23.260;2023-01-08T10:34:46;22.27;;;12.93;;
20008;SDS011;10165;42.662;23.260;2023-01-08T10:40:05;17.77;;;10.73;;
20008;SDS011;10165;42.662;23.260;2023-01-08T10:42:45;16.60;;;10.80;;
20008;SDS011;10165;42.662;23.260;2023-01-08T10:45:16;17.73;;;10.37;;
20008;SDS011;10165;42.662;23.260;2023-01-08T10:47:46;18.50;;;11.20;;
20008;SDS011;10165;42.662;23.260;2023-01-08T10:50:23;20.03;;;12.17;;
20008;SDS011;10165;42.662;23.260;2023-01-08T10:52:56;23.63;;;14.40;;
20008;SDS011;10165;42.662;23.260;2023-01-08T10:55:28;21.63;;;12.20;;
20008;SDS011;10165;42.662;23.260;2023-01-08T10:58:12;18.80;;;11.77;;
20008;SDS011;10165;42.662;23.260;2023-01-08T11:00:40;27.63;;;14.33;;
20008;SDS011;10165;42.662;23.260;2023-01-08T11:03:14;23.40;;;16.07;;
20008;SDS011;10165;42.662;23.260;2023-01-08T11:05:53;23.03;;;14.30;;
20008;SDS011;10165;42.662;23.260;2023-01-08T11:08:20;24.13;;;14.73;;
20008;SDS011;10165;42.662;23.260;2023-01-08T11:10:58;28.70;;;14.20;;
20008;SDS011;10165;42.662;23.260;2023-01-08T11:13:29;28.47;;;14.97;;
20008;SDS011;10165;42.662;23.260;2023-01-08T11:16:03;34.93;;;14.60;;
20008;SDS011;10165;42.662;23.260;2023-01-08T11:18:35;21.90;;;13.13;;
20008;SDS011;10165;42.662;23.260;2023-01-08T11:21:17;29.80;;;15.40;;
20008;SDS011;10165;42.662;23.260;2023-01-08T11:23:46;23.60;;;14.07;;
20008;SDS011;10165;42.662;23.260;2023-01-08T11:26:25;26.77;;;14.17;;
20008;SDS011;10165;42.662;23.260;2023-01-08T11:29:01;20.53;;;12.53;;
20008;SDS011;10165;42.662;23.260;2023-01-08T11:34:30;28.27;;;14.53;;
20008;SDS011;10165;42.662;23.260;2023-01-08T11:37:18;27.10;;;14.37;;
20008;SDS011;10165;42.662;23.260;2023-01-08T11:39:53;41.37;;;21.70;;
20008;SDS011;10165;42.662;23.260;2023-01-08T11:45:10;44.07;;;19.37;;
20008;SDS011;10165;42.662;23.260;2023-01-08T11:47:47;28.37;;;15.70;;
20008;SDS011;10165;42.662;23.260;2023-01-08T11:50:28;34.50;;;15.20;;
20008;SDS011;10165;42.662;23.260;2023-01-08T11:53:04;22.00;;;14.27;;
20008;SDS011;10165;42.662;23.260;2023-01-08T11:55:58;30.60;;;14.97;;
20008;SDS011;10165;42.662;23.260;2023-01-08T12:01:11;40.73;;;14.97;;
20008;SDS011;10165;42.662;23.260;2023-01-08T12:06:50;28.00;;;15.90;;
20008;SDS011;10165;42.662;23.260;2023-01-08T12:09:37;33.63;;;14.03;;
20008;SDS011;10165;42.662;23.260;2023-01-08T12:12:28;26.43;;;17.30;;
20008;SDS011;10165;42.662;23.260;2023-01-08T12:15:15;26.80;;;13.87;;
20008;SDS011;10165;42.662;23.260;2023-01-08T12:20:29;25.93;;;14.53;;
20008;SDS011;10165;42.662;23.260;2023-01-08T12:23:14;29.13;;;16.73;;
20008;SDS011;10165;42.662;23.260;2023-01-08T12:28:51;25.03;;;15.47;;
20008;SDS011;10165;42.662;23.260;2023-01-08T12:34:08;30.73;;;13.67;;
20008;SDS011;10165;42.662;23.260;2023-01-08T12:36:44;29.93;;;16.10;;
20008;SDS011;10165;42.662;23.260;2023-01-08T12:39:25;30.53;;;15.90;;
20008;SDS011;10165;42.662;23.260;2023-01-08T12:42:12;27.33;;;14.53;;
20008;SDS011;10165;42.662;23.260;2023-01-08T12:44:43;22.50;;;15.93;;
20008;SDS011;10165;42.662;23.260;2023-01-08T12:47:12;24.10;;;14.63;;
20008;SDS011;10165;42.662;23.260;2023-01-08T12:49:50;25.90;;;14.37;;
20008;SDS011;10165;42.662;23.260;2023-01-08T12:52:47;36.03;;;19.13;;
20008;SDS011;10165;42.662;23.260;2023-01-08T12:55:39;29.03;;;17.13;;
20008;SDS011;10165;42.662;23.260;2023-01-08T12:58:23;39.03;;;21.77;;
20008;SDS011;10165;42.662;23.260;2023-01-08T13:03:41;30.97;;;15.67;;
20008;SDS011;10165;42.662;23.260;2023-01-08T13:06:12;30.53;;;14.10;;
20008;SDS011;10165;42.662;23.260;2023-01-08T13:08:58;27.90;;;13.97;;
20008;SDS011;10165;42.662;23.260;2023-01-08T13:11:30;27.13;;;14.00;;
20008;SDS011;10165;42.662;23.260;2023-01-08T13:14:07;28.77;;;14.13;;
20008;SDS011;10165;42.662;23.260;2023-01-08T13:16:39;27.23;;;14.67;;
20008;SDS011;10165;42.662;23.260;2023-01-08T13:19:21;29.67;;;15.40;;
20008;SDS011;10165;42.662;23.260;2023-01-08T13:21:57;25.53;;;15.23;;
20008;SDS011;10165;42.662;23.260;2023-01-08T13:27:10;27.97;;;14.57;;
20008;SDS011;10165;42.662;23.260;2023-01-08T13:29:38;21.80;;;13.57;;
20008;SDS011;10165;42.662;23.260;2023-01-08T13:35:08;20.57;;;12.30;;
20008;SDS011;10165;42.662;23.260;2023-01-08T13:37:42;16.23;;;9.53;;
20008;SDS011;10165;42.662;23.260;2023-01-08T13:43:05;13.97;;;10.00;;
20008;SDS011;10165;42.662;23.260;2023-01-08T13:48:27;14.63;;;8.13;;
20008;SDS011;10165;42.662;23.260;2023-01-08T13:50:56;12.27;;;7.27;;
20008;SDS011;10165;42.662;23.260;2023-01-08T13:53:23;15.63;;;8.23;;
20008;SDS011;10165;42.662;23.260;2023-01-08T13:55:56;15.37;;;7.97;;
20008;SDS011;10165;42.662;23.260;2023-01-08T13:58:27;18.00;;;8.20;;
20008;SDS011;10165;42.662;23.260;2023-01-08T14:00:58;14.17;;;8.17;;
20008;SDS011;10165;42.662;23.260;2023-01-08T14:03:29;16.80;;;7.97;;
20008;SDS011;10165;42.662;23.260;2023-01-08T14:06:04;12.87;;;7.30;;
20008;SDS011;10165;42.662;23.260;2023-01-08T14:08:32;16.70;;;7.90;;
20008;SDS011;10165;42.662;23.260;2023-01-08T14:10:59;13.93;;;6.97;;
20008;SDS011;10165;42.662;23.260;2023-01-08T14:13:28;14.57;;;7.00;;
20008;SDS011;10165;42.662;23.260;2023-01-08T14:15:58;12.13;;;7.37;;
20008;SDS011;10165;42.662;23.260;2023-01-08T14:18:28;14.53;;;7.93;;
20008;SDS011;10165;42.662;23.260;2023-01-08T14:20:55;11.97;;;6.40;;
20008;SDS011;10165;42.662;23.260;2023-01-08T14:23:26;13.67;;;7.57;;
20008;SDS011;10165;42.662;23.260;2023-01-08T14:26:02;14.17;;;7.57;;
20008;SDS011;10165;42.662;23.260;2023-01-08T14:28:31;12.53;;;7.77;;
20008;SDS011;10165;42.662;23.260;2023-01-08T14:30:58;11.77;;;7.13;;
20008;SDS011;10165;42.662;23.260;2023-01-08T14:33:32;13.83;;;7.93;;
20008;SDS011;10165;42.662;23.260;2023-01-08T14:36:00;12.93;;;7.17;;
20008;SDS011;10165;42.662;23.260;2023-01-08T14:38:29;15.93;;;8.20;;
20008;SDS011;10165;42.662;23.260;2023-01-08T14:40:57;19.47;;;8.80;;
20008;SDS011;10165;42.662;23.260;2023-01-08T14:43:27;13.87;;;7.60;;
20008;SDS011;10165;42.662;23.260;2023-01-08T14:46:03;16.10;;;7.53;;
20008;SDS011;10165;42.662;23.260;2023-01-08T14:48:43;14.10;;;7.87;;
20008;SDS011;10165;42.662;23.260;2023-01-08T14:51:14;12.77;;;8.43;;
20008;SDS011;10165;42.662;23.260;2023-01-08T14:53:48;12.07;;;7.47;;
20008;SDS011;10165;42.662;23.260;2023-01-08T14:56:19;13.80;;;6.77;;
20008;SDS011;10165;42.662;23.260;2023-01-08T14:58:49;12.43;;;6.70;;
20008;SDS011;10165;42.662;23.260;2023-01-08T15:01:20;9.53;;;6.03;;
20008;SDS011;10165;42.662;23.260;2023-01-08T15:06:44;9.07;;;5.60;;
20008;SDS011;10165;42.662;23.260;2023-01-08T15:09:19;13.93;;;6.00;;
20008;SDS011;10165;42.662;23.260;2023-01-08T15:11:53;8.43;;;4.50;;
20008;SDS011;10165;42.662;23.260;2023-01-08T15:14:22;10.50;;;4.93;;
20008;SDS011;10165;42.662;23.260;2023-01-08T15:16:50;10.83;;;5.40;;
20008;SDS011;10165;42.662;23.260;2023-01-08T15:19:24;18.37;;;6.10;;
20008;SDS011;10165;42.662;23.260;2023-01-08T15:21:53;14.63;;;7.93;;
20008;SDS011;10165;42.662;23.260;2023-01-08T15:24:30;28.80;;;12.80;;
20008;SDS011;10165;42.662;23.260;2023-01-08T15:26:59;26.13;;;11.23;;
20008;SDS011;10165;42.662;23.260;2023-01-08T15:29:45;15.20;;;8.03;;
20008;SDS011;10165;42.662;23.260;2023-01-08T15:34:43;11.33;;;6.77;;
20008;SDS011;10165;42.662;23.260;2023-01-08T15:37:11;13.20;;;6.63;;
20008;SDS011;10165;42.662;23.260;2023-01-08T15:39:40;12.60;;;5.60;;
20008;SDS011;10165;42.662;23.260;2023-01-08T15:42:20;11.70;;;6.50;;